sensor_id;sensor_type;location;lat;lon;timestamp;P1;durP1;ratioP1;P2;durP2;ratioP2
61840;SDS011;47773;53.174;6.614;2023-05-16T00:01:58;23.10;;;2.30;;
61840;SDS011;47773;53.174;6.614;2023-05-16T00:04:24;14.35;;;2.00;;
61840;SDS011;47773;53.174;6.614;2023-05-16T00:06:50;18.23;;;2.22;;
61840;SDS011;47773;53.174;6.614;2023-05-16T00:09:16;12.43;;;1.63;;
61840;SDS011;47773;53.174;6.614;2023-05-16T00:11:41;20.70;;;1.70;;
61840;SDS011;47773;53.174;6.614;2023-05-16T00:14:07;17.08;;;2.00;;
61840;SDS011;47773;53.174;6.614;2023-05-16T00:16:33;12.55;;;1.92;;
61840;SDS011;47773;53.174;6.614;2023-05-16T00:19:01;15.73;;;2.05;;
61840;SDS011;47773;53.174;6.614;2023-05-16T00:21:28;16.42;;;2.15;;
61840;SDS011;47773;53.174;6.614;2023-05-16T00:23:54;9.48;;;1.30;;
61840;SDS011;47773;53.174;6.614;2023-05-16T00:26:19;15.35;;;1.70;;
61840;SDS011;47773;53.174;6.614;2023-05-16T00:28:45;21.10;;;1.95;;
61840;SDS011;47773;53.174;6.614;2023-05-16T00:31:11;14.48;;;1.77;;
61840;SDS011;47773;53.174;6.614;2023-05-16T00:33:36;12.98;;;1.58;;
61840;SDS011;47773;53.174;6.614;2023-05-16T00:36:02;11.85;;;1.95;;
61840;SDS011;47773;53.174;6.614;2023-05-16T00:38:28;11.90;;;1.65;;
61840;SDS011;47773;53.174;6.614;2023-05-16T00:40:53;15.48;;;1.73;;
61840;SDS011;47773;53.174;6.614;2023-05-16T00:43:19;12.13;;;2.15;;
61840;SDS011;47773;53.174;6.614;2023-05-16T00:45:45;9.75;;;1.60;;
61840;SDS011;47773;53.174;6.614;2023-05-16T00:48:13;13.10;;;1.52;;
61840;SDS011;47773;53.174;6.614;2023-05-16T00:50:39;19.35;;;1.95;;
61840;SDS011;47773;53.174;6.614;2023-05-16T00:53:05;10.23;;;1.30;;
61840;SDS011;47773;53.174;6.614;2023-05-16T00:55:31;12.85;;;2.38;;
61840;SDS011;47773;53.174;6.614;2023-05-16T00:57:57;14.20;;;1.73;;
61840;SDS011;47773;53.174;6.614;2023-05-16T01:00:24;16.20;;;2.53;;
61840;SDS011;47773;53.174;6.614;2023-05-16T01:02:50;13.40;;;1.83;;
61840;SDS011;47773;53.174;6.614;2023-05-16T01:05:17;14.18;;;1.65;;
61840;SDS011;47773;53.174;6.614;2023-05-16T01:07:44;15.82;;;1.60;;
61840;SDS011;47773;53.174;6.614;2023-05-16T01:10:10;14.98;;;1.98;;
61840;SDS011;47773;53.174;6.614;2023-05-16T01:12:39;12.50;;;1.38;;
61840;SDS011;47773;53.174;6.614;2023-05-16T01:15:43;7.85;;;1.30;;
61840;SDS011;47773;53.174;6.614;2023-05-16T01:18:34;13.40;;;1.45;;
61840;SDS011;47773;53.174;6.614;2023-05-16T01:21:09;17.23;;;2.53;;
61840;SDS011;47773;53.174;6.614;2023-05-16T01:26:22;16.80;;;1.40;;
61840;SDS011;47773;53.174;6.614;2023-05-16T01:28:51;13.18;;;1.55;;
61840;SDS011;47773;53.174;6.614;2023-05-16T01:31:18;9.52;;;1.50;;
61840;SDS011;47773;53.174;6.614;2023-05-16T01:33:45;10.15;;;1.40;;
61840;SDS011;47773;53.174;6.614;2023-05-16T01:39:00;12.40;;;1.75;;
61840;SDS011;47773;53.174;6.614;2023-05-16T01:44:10;18.65;;;2.15;;
61840;SDS011;47773;53.174;6.614;2023-05-16T01:46:47;15.70;;;1.27;;
61840;SDS011;47773;53.174;6.614;2023-05-16T01:49:19;13.15;;;2.20;;
61840;SDS011;47773;53.174;6.614;2023-05-16T01:51:50;11.57;;;1.63;;
61840;SDS011;47773;53.174;6.614;2023-05-16T01:54:19;7.90;;;1.58;;
61840;SDS011;47773;53.174;6.614;2023-05-16T01:56:50;9.82;;;1.20;;
61840;SDS011;47773;53.174;6.614;2023-05-16T01:59:18;10.82;;;1.48;;
61840;SDS011;47773;53.174;6.614;2023-05-16T02:01:46;15.95;;;1.40;;
61840;SDS011;47773;53.174;6.614;2023-05-16T02:04:11;6.70;;;1.05;;
61840;SDS011;47773;53.174;6.614;2023-05-16T02:06:39;11.10;;;1.10;;
61840;SDS011;47773;53.174;6.614;2023-05-16T02:09:05;11.40;;;1.33;;
61840;SDS011;47773;53.174;6.614;2023-05-16T02:11:32;12.88;;;1.60;;
61840;SDS011;47773;53.174;6.614;2023-05-16T02:13:57;14.73;;;1.33;;
61840;SDS011;47773;53.174;6.614;2023-05-16T02:16:23;17.38;;;1.75;;
61840;SDS011;47773;53.174;6.614;2023-05-16T02:18:49;13.30;;;1.33;;
61840;SDS011;47773;53.174;6.614;2023-05-16T02:21:15;10.15;;;1.55;;
61840;SDS011;47773;53.174;6.614;2023-05-16T02:23:40;12.55;;;1.58;;
61840;SDS011;47773;53.174;6.614;2023-05-16T02:26:06;10.88;;;1.33;;
61840;SDS011;47773;53.174;6.614;2023-05-16T02:28:31;10.35;;;2.03;;
61840;SDS011;47773;53.174;6.614;2023-05-16T02:30:57;15.50;;;1.88;;
61840;SDS011;47773;53.174;6.614;2023-05-16T02:33:24;14.35;;;2.05;;
61840;SDS011;47773;53.174;6.614;2023-05-16T02:35:51;13.77;;;1.65;;
61840;SDS011;47773;53.174;6.614;2023-05-16T02:38:17;14.70;;;1.63;;
61840;SDS011;47773;53.174;6.614;2023-05-16T02:40:45;13.75;;;1.52;;
61840;SDS011;47773;53.174;6.614;2023-05-16T02:43:11;11.40;;;1.67;;
61840;SDS011;47773;53.174;6.614;2023-05-16T02:45:37;11.63;;;1.65;;
61840;SDS011;47773;53.174;6.614;2023-05-16T02:48:02;8.43;;;1.95;;
61840;SDS011;47773;53.174;6.614;2023-05-16T02:50:28;11.10;;;1.42;;
61840;SDS011;47773;53.174;6.614;2023-05-16T02:52:54;14.48;;;1.75;;
61840;SDS011;47773;53.174;6.614;2023-05-16T02:55:19;17.55;;;2.22;;
61840;SDS011;47773;53.174;6.614;2023-05-16T02:57:45;12.27;;;2.13;;
61840;SDS011;47773;53.174;6.614;2023-05-16T03:00:11;15.27;;;1.50;;
61840;SDS011;47773;53.174;6.614;2023-05-16T03:02:38;16.58;;;2.17;;
61840;SDS011;47773;53.174;6.614;2023-05-16T03:05:04;8.45;;;1.50;;
61840;SDS011;47773;53.174;6.614;2023-05-16T03:07:30;8.40;;;1.40;;
61840;SDS011;47773;53.174;6.614;2023-05-16T03:09:56;9.73;;;1.23;;
61840;SDS011;47773;53.174;6.614;2023-05-16T03:12:21;17.67;;;1.60;;
61840;SDS011;47773;53.174;6.614;2023-05-16T03:14:47;12.55;;;1.40;;
61840;SDS011;47773;53.174;6.614;2023-05-16T03:17:13;13.00;;;1.45;;
61840;SDS011;47773;53.174;6.614;2023-05-16T03:19:38;11.18;;;1.70;;
61840;SDS011;47773;53.174;6.614;2023-05-16T03:22:04;11.65;;;1.23;;
61840;SDS011;47773;53.174;6.614;2023-05-16T03:24:30;13.02;;;1.60;;
61840;SDS011;47773;53.174;6.614;2023-05-16T03:26:56;16.10;;;1.90;;
61840;SDS011;47773;53.174;6.614;2023-05-16T03:29:21;17.55;;;1.88;;
61840;SDS011;47773;53.174;6.614;2023-05-16T03:31:47;9.60;;;1.45;;
61840;SDS011;47773;53.174;6.614;2023-05-16T03:34:13;14.00;;;1.48;;
61840;SDS011;47773;53.174;6.614;2023-05-16T03:36:38;9.00;;;1.20;;
61840;SDS011;47773;53.174;6.614;2023-05-16T03:39:05;17.35;;;1.70;;
61840;SDS011;47773;53.174;6.614;2023-05-16T03:41:32;17.55;;;1.67;;
61840;SDS011;47773;53.174;6.614;2023-05-16T03:43:59;15.20;;;1.60;;
61840;SDS011;47773;53.174;6.614;2023-05-16T03:46:24;11.05;;;1.52;;
61840;SDS011;47773;53.174;6.614;2023-05-16T03:48:50;13.77;;;1.35;;
61840;SDS011;47773;53.174;6.614;2023-05-16T03:51:16;10.93;;;1.55;;
61840;SDS011;47773;53.174;6.614;2023-05-16T03:53:42;12.35;;;1.50;;
61840;SDS011;47773;53.174;6.614;2023-05-16T03:56:07;13.38;;;1.70;;
61840;SDS011;47773;53.174;6.614;2023-05-16T03:58:33;10.60;;;1.50;;
61840;SDS011;47773;53.174;6.614;2023-05-16T04:00:58;12.52;;;2.05;;
61840;SDS011;47773;53.174;6.614;2023-05-16T04:03:24;7.95;;;1.70;;
61840;SDS011;47773;53.174;6.614;2023-05-16T04:05:52;11.75;;;1.65;;
61840;SDS011;47773;53.174;6.614;2023-05-16T04:08:22;21.50;;;2.00;;
61840;SDS011;47773;53.174;6.614;2023-05-16T04:10:47;15.20;;;1.75;;
61840;SDS011;47773;53.174;6.614;2023-05-16T04:13:13;10.40;;;1.20;;
61840;SDS011;47773;53.174;6.614;2023-05-16T04:15:39;7.93;;;1.17;;
61840;SDS011;47773;53.174;6.614;2023-05-16T04:18:05;13.35;;;1.40;;
61840;SDS011;47773;53.174;6.614;2023-05-16T04:20:30;13.45;;;2.42;;
61840;SDS011;47773;53.174;6.614;2023-05-16T04:22:56;12.57;;;1.48;;
61840;SDS011;47773;53.174;6.614;2023-05-16T04:25:21;15.07;;;1.73;;
61840;SDS011;47773;53.174;6.614;2023-05-16T04:27:47;11.25;;;1.80;;
61840;SDS011;47773;53.174;6.614;2023-05-16T04:30:13;12.75;;;1.50;;
61840;SDS011;47773;53.174;6.614;2023-05-16T04:32:39;8.07;;;1.15;;
61840;SDS011;47773;53.174;6.614;2023-05-16T04:35:04;7.43;;;1.60;;
61840;SDS011;47773;53.174;6.614;2023-05-16T04:37:33;14.90;;;1.65;;
61840;SDS011;47773;53.174;6.614;2023-05-16T04:39:59;12.82;;;2.03;;
61840;SDS011;47773;53.174;6.614;2023-05-16T04:42:25;6.45;;;1.17;;
61840;SDS011;47773;53.174;6.614;2023-05-16T04:44:51;9.73;;;1.40;;
61840;SDS011;47773;53.174;6.614;2023-05-16T04:47:17;9.30;;;1.77;;
61840;SDS011;47773;53.174;6.614;2023-05-16T04:49:42;13.50;;;1.92;;
61840;SDS011;47773;53.174;6.614;2023-05-16T04:52:08;10.25;;;1.85;;
61840;SDS011;47773;53.174;6.614;2023-05-16T04:54:36;22.25;;;2.08;;
61840;SDS011;47773;53.174;6.614;2023-05-16T04:57:03;11.57;;;2.47;;
61840;SDS011;47773;53.174;6.614;2023-05-16T04:59:29;11.18;;;1.73;;
61840;SDS011;47773;53.174;6.614;2023-05-16T05:01:55;15.55;;;1.80;;
61840;SDS011;47773;53.174;6.614;2023-05-16T05:04:21;12.43;;;1.67;;
61840;SDS011;47773;53.174;6.614;2023-05-16T05:06:46;12.00;;;1.80;;
61840;SDS011;47773;53.174;6.614;2023-05-16T05:09:12;9.50;;;1.27;;
61840;SDS011;47773;53.174;6.614;2023-05-16T05:11:38;10.18;;;1.90;;
61840;SDS011;47773;53.174;6.614;2023-05-16T05:14:04;11.93;;;1.55;;
61840;SDS011;47773;53.174;6.614;2023-05-16T05:16:29;14.48;;;1.70;;
61840;SDS011;47773;53.174;6.614;2023-05-16T05:18:55;10.85;;;1.50;;
61840;SDS011;47773;53.174;6.614;2023-05-16T05:21:21;12.18;;;1.45;;
61840;SDS011;47773;53.174;6.614;2023-05-16T05:23:49;11.65;;;1.42;;
61840;SDS011;47773;53.174;6.614;2023-05-16T05:26:15;12.82;;;1.60;;
61840;SDS011;47773;53.174;6.614;2023-05-16T05:28:41;10.50;;;1.40;;
61840;SDS011;47773;53.174;6.614;2023-05-16T05:31:07;11.65;;;1.77;;
61840;SDS011;47773;53.174;6.614;2023-05-16T05:33:32;11.70;;;1.65;;
61840;SDS011;47773;53.174;6.614;2023-05-16T05:35:58;14.82;;;1.52;;
61840;SDS011;47773;53.174;6.614;2023-05-16T05:38:24;12.40;;;1.55;;
61840;SDS011;47773;53.174;6.614;2023-05-16T05:40:50;8.82;;;1.35;;
61840;SDS011;47773;53.174;6.614;2023-05-16T05:43:15;9.98;;;1.63;;
61840;SDS011;47773;53.174;6.614;2023-05-16T05:45:41;9.65;;;1.30;;
61840;SDS011;47773;53.174;6.614;2023-05-16T05:48:07;11.70;;;1.20;;
61840;SDS011;47773;53.174;6.614;2023-05-16T05:50:34;8.88;;;1.42;;
61840;SDS011;47773;53.174;6.614;2023-05-16T05:53:00;9.00;;;1.70;;
61840;SDS011;47773;53.174;6.614;2023-05-16T05:55:26;11.90;;;1.60;;
61840;SDS011;47773;53.174;6.614;2023-05-16T05:57:52;13.98;;;2.03;;
61840;SDS011;47773;53.174;6.614;2023-05-16T06:00:18;12.15;;;1.40;;
61840;SDS011;47773;53.174;6.614;2023-05-16T06:02:43;12.82;;;2.00;;
61840;SDS011;47773;53.174;6.614;2023-05-16T06:05:09;16.55;;;1.80;;
61840;SDS011;47773;53.174;6.614;2023-05-16T06:07:35;19.70;;;1.50;;
61840;SDS011;47773;53.174;6.614;2023-05-16T06:10:01;8.60;;;1.30;;
61840;SDS011;47773;53.174;6.614;2023-05-16T06:12:29;12.10;;;1.42;;
61840;SDS011;47773;53.174;6.614;2023-05-16T06:14:55;14.38;;;2.15;;
61840;SDS011;47773;53.174;6.614;2023-05-16T06:17:21;14.05;;;1.55;;
61840;SDS011;47773;53.174;6.614;2023-05-16T06:19:46;8.23;;;1.73;;
61840;SDS011;47773;53.174;6.614;2023-05-16T06:22:12;11.20;;;0.80;;
61840;SDS011;47773;53.174;6.614;2023-05-16T06:24:38;14.55;;;1.88;;
61840;SDS011;47773;53.174;6.614;2023-05-16T06:27:04;10.32;;;1.35;;
61840;SDS011;47773;53.174;6.614;2023-05-16T06:29:30;8.75;;;0.98;;
61840;SDS011;47773;53.174;6.614;2023-05-16T06:31:56;10.40;;;1.05;;
61840;SDS011;47773;53.174;6.614;2023-05-16T06:34:21;9.60;;;0.80;;
61840;SDS011;47773;53.174;6.614;2023-05-16T06:36:52;8.30;;;1.25;;
61840;SDS011;47773;53.174;6.614;2023-05-16T06:39:18;13.48;;;1.25;;
61840;SDS011;47773;53.174;6.614;2023-05-16T06:41:44;3.42;;;0.50;;
61840;SDS011;47773;53.174;6.614;2023-05-16T06:44:10;7.65;;;1.02;;
61840;SDS011;47773;53.174;6.614;2023-05-16T06:46:36;9.13;;;1.25;;
61840;SDS011;47773;53.174;6.614;2023-05-16T06:49:02;6.65;;;1.00;;
61840;SDS011;47773;53.174;6.614;2023-05-16T06:51:28;5.28;;;0.80;;
61840;SDS011;47773;53.174;6.614;2023-05-16T06:53:55;10.13;;;1.33;;
61840;SDS011;47773;53.174;6.614;2023-05-16T06:56:21;5.80;;;1.00;;
61840;SDS011;47773;53.174;6.614;2023-05-16T06:58:47;14.07;;;1.20;;
61840;SDS011;47773;53.174;6.614;2023-05-16T07:01:14;13.00;;;1.25;;
61840;SDS011;47773;53.174;6.614;2023-05-16T07:03:40;8.40;;;0.98;;
61840;SDS011;47773;53.174;6.614;2023-05-16T07:06:06;7.32;;;0.82;;
61840;SDS011;47773;53.174;6.614;2023-05-16T07:08:32;7.20;;;1.00;;
61840;SDS011;47773;53.174;6.614;2023-05-16T07:11:00;6.35;;;0.80;;
61840;SDS011;47773;53.174;6.614;2023-05-16T07:13:25;7.35;;;1.00;;
61840;SDS011;47773;53.174;6.614;2023-05-16T07:15:51;6.72;;;1.38;;
61840;SDS011;47773;53.174;6.614;2023-05-16T07:18:17;9.00;;;1.08;;
61840;SDS011;47773;53.174;6.614;2023-05-16T07:20:43;12.25;;;1.50;;
61840;SDS011;47773;53.174;6.614;2023-05-16T07:23:09;12.63;;;1.42;;
61840;SDS011;47773;53.174;6.614;2023-05-16T07:25:35;11.85;;;1.02;;
61840;SDS011;47773;53.174;6.614;2023-05-16T07:28:01;10.25;;;1.20;;
61840;SDS011;47773;53.174;6.614;2023-05-16T07:30:27;15.27;;;1.75;;
61840;SDS011;47773;53.174;6.614;2023-05-16T07:32:53;8.48;;;1.10;;
61840;SDS011;47773;53.174;6.614;2023-05-16T07:35:19;9.63;;;1.63;;
61840;SDS011;47773;53.174;6.614;2023-05-16T07:37:44;6.45;;;1.00;;
61840;SDS011;47773;53.174;6.614;2023-05-16T07:40:11;11.95;;;1.50;;
61840;SDS011;47773;53.174;6.614;2023-05-16T07:42:37;6.03;;;0.95;;
61840;SDS011;47773;53.174;6.614;2023-05-16T07:45:03;7.68;;;1.63;;
61840;SDS011;47773;53.174;6.614;2023-05-16T07:47:30;11.27;;;1.73;;
61840;SDS011;47773;53.174;6.614;2023-05-16T07:49:56;15.45;;;1.27;;
61840;SDS011;47773;53.174;6.614;2023-05-16T07:52:22;12.20;;;1.52;;
61840;SDS011;47773;53.174;6.614;2023-05-16T07:54:48;12.57;;;1.50;;
61840;SDS011;47773;53.174;6.614;2023-05-16T07:57:13;9.65;;;1.30;;
61840;SDS011;47773;53.174;6.614;2023-05-16T07:59:40;10.20;;;1.13;;
61840;SDS011;47773;53.174;6.614;2023-05-16T08:02:06;11.60;;;1.52;;
61840;SDS011;47773;53.174;6.614;2023-05-16T08:04:32;7.32;;;1.10;;
61840;SDS011;47773;53.174;6.614;2023-05-16T08:06:57;9.05;;;1.52;;
61840;SDS011;47773;53.174;6.614;2023-05-16T08:09:23;10.55;;;1.15;;
61840;SDS011;47773;53.174;6.614;2023-05-16T08:11:48;10.75;;;1.58;;
61840;SDS011;47773;53.174;6.614;2023-05-16T08:14:14;11.13;;;1.17;;
61840;SDS011;47773;53.174;6.614;2023-05-16T08:16:40;12.75;;;1.42;;
61840;SDS011;47773;53.174;6.614;2023-05-16T08:19:06;6.72;;;1.08;;
61840;SDS011;47773;53.174;6.614;2023-05-16T08:21:31;8.23;;;1.20;;
61840;SDS011;47773;53.174;6.614;2023-05-16T08:23:57;10.23;;;1.15;;
61840;SDS011;47773;53.174;6.614;2023-05-16T08:26:23;6.18;;;0.90;;
61840;SDS011;47773;53.174;6.614;2023-05-16T08:28:49;7.05;;;0.65;;
61840;SDS011;47773;53.174;6.614;2023-05-16T08:31:15;5.63;;;0.77;;
61840;SDS011;47773;53.174;6.614;2023-05-16T08:33:41;5.38;;;0.75;;
61840;SDS011;47773;53.174;6.614;2023-05-16T08:36:08;4.22;;;0.60;;
61840;SDS011;47773;53.174;6.614;2023-05-16T08:38:33;8.90;;;1.38;;
61840;SDS011;47773;53.174;6.614;2023-05-16T08:40:59;11.43;;;1.20;;
61840;SDS011;47773;53.174;6.614;2023-05-16T08:43:25;13.07;;;1.10;;
61840;SDS011;47773;53.174;6.614;2023-05-16T08:45:51;8.80;;;1.02;;
61840;SDS011;47773;53.174;6.614;2023-05-16T08:48:16;9.70;;;1.17;;
61840;SDS011;47773;53.174;6.614;2023-05-16T08:50:47;10.00;;;1.38;;
61840;SDS011;47773;53.174;6.614;2023-05-16T08:53:13;7.43;;;1.10;;
61840;SDS011;47773;53.174;6.614;2023-05-16T08:55:42;8.88;;;1.17;;
61840;SDS011;47773;53.174;6.614;2023-05-16T08:58:09;13.02;;;1.45;;
61840;SDS011;47773;53.174;6.614;2023-05-16T09:00:36;14.75;;;1.60;;
61840;SDS011;47773;53.174;6.614;2023-05-16T09:03:03;7.63;;;1.30;;
61840;SDS011;47773;53.174;6.614;2023-05-16T09:05:30;10.43;;;1.50;;
61840;SDS011;47773;53.174;6.614;2023-05-16T09:07:56;9.98;;;1.15;;
61840;SDS011;47773;53.174;6.614;2023-05-16T09:10:21;11.55;;;1.10;;
61840;SDS011;47773;53.174;6.614;2023-05-16T09:12:47;11.15;;;1.40;;
61840;SDS011;47773;53.174;6.614;2023-05-16T09:15:13;13.48;;;1.25;;
61840;SDS011;47773;53.174;6.614;2023-05-16T09:17:39;9.93;;;1.25;;
61840;SDS011;47773;53.174;6.614;2023-05-16T09:20:08;13.35;;;1.70;;
61840;SDS011;47773;53.174;6.614;2023-05-16T09:22:37;5.32;;;0.77;;
61840;SDS011;47773;53.174;6.614;2023-05-16T09:25:04;8.77;;;1.25;;
61840;SDS011;47773;53.174;6.614;2023-05-16T09:27:31;13.80;;;1.50;;
61840;SDS011;47773;53.174;6.614;2023-05-16T09:29:57;7.15;;;1.02;;
61840;SDS011;47773;53.174;6.614;2023-05-16T09:32:23;12.68;;;1.50;;
61840;SDS011;47773;53.174;6.614;2023-05-16T09:34:51;7.40;;;1.08;;
61840;SDS011;47773;53.174;6.614;2023-05-16T09:37:17;8.95;;;1.25;;
61840;SDS011;47773;53.174;6.614;2023-05-16T09:39:48;11.05;;;1.40;;
61840;SDS011;47773;53.174;6.614;2023-05-16T09:42:16;8.07;;;1.00;;
61840;SDS011;47773;53.174;6.614;2023-05-16T09:44:47;5.88;;;0.95;;
61840;SDS011;47773;53.174;6.614;2023-05-16T09:47:17;5.03;;;0.68;;
61840;SDS011;47773;53.174;6.614;2023-05-16T09:49:44;7.03;;;0.82;;
61840;SDS011;47773;53.174;6.614;2023-05-16T09:52:10;11.10;;;1.23;;
61840;SDS011;47773;53.174;6.614;2023-05-16T09:54:40;8.18;;;1.00;;
61840;SDS011;47773;53.174;6.614;2023-05-16T09:57:06;9.85;;;1.27;;
61840;SDS011;47773;53.174;6.614;2023-05-16T09:59:35;7.55;;;1.08;;
61840;SDS011;47773;53.174;6.614;2023-05-16T10:02:05;11.25;;;1.40;;
61840;SDS011;47773;53.174;6.614;2023-05-16T10:04:32;12.73;;;3.08;;
61840;SDS011;47773;53.174;6.614;2023-05-16T10:07:00;9.18;;;1.13;;
61840;SDS011;47773;53.174;6.614;2023-05-16T10:09:27;7.20;;;1.25;;
61840;SDS011;47773;53.174;6.614;2023-05-16T10:11:56;12.85;;;1.42;;
61840;SDS011;47773;53.174;6.614;2023-05-16T10:14:27;25.45;;;1.58;;
61840;SDS011;47773;53.174;6.614;2023-05-16T10:16:53;11.45;;;1.15;;
61840;SDS011;47773;53.174;6.614;2023-05-16T10:19:21;10.90;;;1.50;;
61840;SDS011;47773;53.174;6.614;2023-05-16T10:21:50;14.77;;;1.40;;
61840;SDS011;47773;53.174;6.614;2023-05-16T10:24:30;10.93;;;1.60;;
61840;SDS011;47773;53.174;6.614;2023-05-16T10:27:13;7.22;;;1.30;;
61840;SDS011;47773;53.174;6.614;2023-05-16T10:29:39;5.40;;;0.85;;
61840;SDS011;47773;53.174;6.614;2023-05-16T10:32:06;7.30;;;1.23;;
61840;SDS011;47773;53.174;6.614;2023-05-16T10:34:33;9.35;;;1.02;;
61840;SDS011;47773;53.174;6.614;2023-05-16T10:36:59;12.48;;;1.70;;
61840;SDS011;47773;53.174;6.614;2023-05-16T10:39:25;11.82;;;1.58;;
61840;SDS011;47773;53.174;6.614;2023-05-16T10:41:52;6.72;;;0.98;;
61840;SDS011;47773;53.174;6.614;2023-05-16T10:44:17;12.23;;;1.08;;
61840;SDS011;47773;53.174;6.614;2023-05-16T10:46:45;7.13;;;1.35;;
61840;SDS011;47773;53.174;6.614;2023-05-16T10:49:21;9.48;;;1.45;;
61840;SDS011;47773;53.174;6.614;2023-05-16T10:52:02;7.43;;;1.40;;
61840;SDS011;47773;53.174;6.614;2023-05-16T10:54:36;6.97;;;1.00;;
61840;SDS011;47773;53.174;6.614;2023-05-16T10:57:17;9.25;;;1.23;;
61840;SDS011;47773;53.174;6.614;2023-05-16T10:59:47;6.32;;;0.93;;
61840;SDS011;47773;53.174;6.614;2023-05-16T11:02:25;7.20;;;1.08;;
61840;SDS011;47773;53.174;6.614;2023-05-16T11:04:56;8.73;;;1.05;;
61840;SDS011;47773;53.174;6.614;2023-05-16T11:07:35;8.98;;;1.00;;
61840;SDS011;47773;53.174;6.614;2023-05-16T11:12:35;5.32;;;0.90;;
61840;SDS011;47773;53.174;6.614;2023-05-16T11:20:32;11.35;;;1.10;;
61840;SDS011;47773;53.174;6.614;2023-05-16T11:25:41;7.30;;;1.08;;
61840;SDS011;47773;53.174;6.614;2023-05-16T11:28:09;3.78;;;1.00;;
61840;SDS011;47773;53.174;6.614;2023-05-16T11:30:41;6.22;;;1.17;;
61840;SDS011;47773;53.174;6.614;2023-05-16T11:33:08;12.05;;;1.30;;
61840;SDS011;47773;53.174;6.614;2023-05-16T11:35:33;9.10;;;1.45;;
61840;SDS011;47773;53.174;6.614;2023-05-16T11:37:59;8.55;;;1.33;;
61840;SDS011;47773;53.174;6.614;2023-05-16T11:40:25;7.57;;;1.23;;
61840;SDS011;47773;53.174;6.614;2023-05-16T11:42:51;12.25;;;1.30;;
61840;SDS011;47773;53.174;6.614;2023-05-16T11:45:17;9.60;;;1.40;;
61840;SDS011;47773;53.174;6.614;2023-05-16T11:47:45;6.28;;;1.30;;
61840;SDS011;47773;53.174;6.614;2023-05-16T11:52:41;10.90;;;1.63;;
61840;SDS011;47773;53.174;6.614;2023-05-16T11:55:08;11.00;;;1.40;;
61840;SDS011;47773;53.174;6.614;2023-05-16T11:57:35;18.67;;;1.73;;
61840;SDS011;47773;53.174;6.614;2023-05-16T12:00:18;6.20;;;1.35;;
61840;SDS011;47773;53.174;6.614;2023-05-16T12:02:46;9.07;;;1.70;;
61840;SDS011;47773;53.174;6.614;2023-05-16T12:05:14;14.02;;;2.17;;
61840;SDS011;47773;53.174;6.614;2023-05-16T12:07:44;9.52;;;1.45;;
61840;SDS011;47773;53.174;6.614;2023-05-16T12:10:14;9.48;;;2.00;;
61840;SDS011;47773;53.174;6.614;2023-05-16T12:12:41;14.57;;;1.50;;
61840;SDS011;47773;53.174;6.614;2023-05-16T12:15:09;7.68;;;1.80;;
61840;SDS011;47773;53.174;6.614;2023-05-16T12:17:36;10.63;;;1.88;;
61840;SDS011;47773;53.174;6.614;2023-05-16T12:20:03;9.73;;;1.73;;
61840;SDS011;47773;53.174;6.614;2023-05-16T12:22:30;7.55;;;2.08;;
61840;SDS011;47773;53.174;6.614;2023-05-16T12:25:17;10.48;;;2.05;;
61840;SDS011;47773;53.174;6.614;2023-05-16T12:27:47;7.57;;;1.50;;
61840;SDS011;47773;53.174;6.614;2023-05-16T12:30:12;9.00;;;1.77;;
61840;SDS011;47773;53.174;6.614;2023-05-16T12:32:42;10.70;;;2.50;;
61840;SDS011;47773;53.174;6.614;2023-05-16T12:35:09;9.10;;;2.25;;
61840;SDS011;47773;53.174;6.614;2023-05-16T12:37:36;8.40;;;2.40;;
61840;SDS011;47773;53.174;6.614;2023-05-16T12:40:01;14.63;;;2.08;;
61840;SDS011;47773;53.174;6.614;2023-05-16T12:42:28;10.00;;;1.88;;
61840;SDS011;47773;53.174;6.614;2023-05-16T12:44:55;12.57;;;2.10;;
61840;SDS011;47773;53.174;6.614;2023-05-16T12:47:21;8.88;;;1.90;;
61840;SDS011;47773;53.174;6.614;2023-05-16T12:49:47;12.60;;;1.90;;
61840;SDS011;47773;53.174;6.614;2023-05-16T12:52:18;9.25;;;2.03;;
61840;SDS011;47773;53.174;6.614;2023-05-16T12:54:45;10.90;;;1.92;;
61840;SDS011;47773;53.174;6.614;2023-05-16T12:57:14;12.60;;;2.10;;
61840;SDS011;47773;53.174;6.614;2023-05-16T12:59:39;9.48;;;2.28;;
61840;SDS011;47773;53.174;6.614;2023-05-16T13:02:06;6.43;;;2.40;;
61840;SDS011;47773;53.174;6.614;2023-05-16T13:04:31;8.27;;;2.40;;
61840;SDS011;47773;53.174;6.614;2023-05-16T13:06:57;8.57;;;2.92;;
61840;SDS011;47773;53.174;6.614;2023-05-16T13:09:23;10.02;;;2.45;;
61840;SDS011;47773;53.174;6.614;2023-05-16T13:11:48;11.27;;;2.78;;
61840;SDS011;47773;53.174;6.614;2023-05-16T13:14:17;10.02;;;2.42;;
61840;SDS011;47773;53.174;6.614;2023-05-16T13:16:43;12.45;;;2.60;;
61840;SDS011;47773;53.174;6.614;2023-05-16T13:19:08;7.03;;;2.88;;
61840;SDS011;47773;53.174;6.614;2023-05-16T13:21:34;11.45;;;2.88;;
61840;SDS011;47773;53.174;6.614;2023-05-16T13:24:00;8.02;;;2.67;;
61840;SDS011;47773;53.174;6.614;2023-05-16T13:26:26;11.30;;;2.53;;
61840;SDS011;47773;53.174;6.614;2023-05-16T13:28:52;10.13;;;2.55;;
61840;SDS011;47773;53.174;6.614;2023-05-16T13:31:19;7.20;;;2.30;;
61840;SDS011;47773;53.174;6.614;2023-05-16T13:33:46;9.60;;;2.33;;
61840;SDS011;47773;53.174;6.614;2023-05-16T13:36:12;12.93;;;2.30;;
61840;SDS011;47773;53.174;6.614;2023-05-16T13:38:38;4.95;;;1.70;;
61840;SDS011;47773;53.174;6.614;2023-05-16T13:41:04;12.30;;;2.65;;
61840;SDS011;47773;53.174;6.614;2023-05-16T13:43:30;7.25;;;2.13;;
61840;SDS011;47773;53.174;6.614;2023-05-16T13:45:55;6.90;;;2.03;;
61840;SDS011;47773;53.174;6.614;2023-05-16T13:48:21;6.55;;;1.73;;
61840;SDS011;47773;53.174;6.614;2023-05-16T13:50:47;6.78;;;1.80;;
61840;SDS011;47773;53.174;6.614;2023-05-16T13:53:12;4.72;;;1.60;;
61840;SDS011;47773;53.174;6.614;2023-05-16T13:55:38;6.18;;;2.28;;
61840;SDS011;47773;53.174;6.614;2023-05-16T13:58:04;6.05;;;2.20;;
61840;SDS011;47773;53.174;6.614;2023-05-16T14:00:29;9.20;;;2.38;;
61840;SDS011;47773;53.174;6.614;2023-05-16T14:02:55;6.88;;;2.35;;
61840;SDS011;47773;53.174;6.614;2023-05-16T14:05:21;4.78;;;1.95;;
61840;SDS011;47773;53.174;6.614;2023-05-16T14:07:47;6.13;;;2.28;;
61840;SDS011;47773;53.174;6.614;2023-05-16T14:10:12;7.38;;;2.53;;
61840;SDS011;47773;53.174;6.614;2023-05-16T14:12:38;6.60;;;2.40;;
61840;SDS011;47773;53.174;6.614;2023-05-16T14:15:04;7.65;;;2.25;;
61840;SDS011;47773;53.174;6.614;2023-05-16T14:17:31;7.38;;;2.35;;
61840;SDS011;47773;53.174;6.614;2023-05-16T14:19:56;5.82;;;2.00;;
61840;SDS011;47773;53.174;6.614;2023-05-16T14:22:22;7.80;;;2.53;;
61840;SDS011;47773;53.174;6.614;2023-05-16T14:24:48;9.95;;;2.00;;
61840;SDS011;47773;53.174;6.614;2023-05-16T14:27:14;10.88;;;2.25;;
61840;SDS011;47773;53.174;6.614;2023-05-16T14:29:40;7.10;;;2.00;;
61840;SDS011;47773;53.174;6.614;2023-05-16T14:32:06;11.30;;;2.38;;
61840;SDS011;47773;53.174;6.614;2023-05-16T14:34:35;8.70;;;1.90;;
61840;SDS011;47773;53.174;6.614;2023-05-16T14:37:00;8.55;;;2.08;;
61840;SDS011;47773;53.174;6.614;2023-05-16T14:39:26;8.68;;;2.05;;
61840;SDS011;47773;53.174;6.614;2023-05-16T14:41:52;7.20;;;1.83;;
61840;SDS011;47773;53.174;6.614;2023-05-16T14:44:17;6.53;;;2.00;;
61840;SDS011;47773;53.174;6.614;2023-05-16T14:46:45;8.23;;;2.20;;
61840;SDS011;47773;53.174;6.614;2023-05-16T14:49:11;4.20;;;1.70;;
61840;SDS011;47773;53.174;6.614;2023-05-16T14:51:37;5.18;;;1.70;;
61840;SDS011;47773;53.174;6.614;2023-05-16T14:54:02;5.53;;;1.80;;
61840;SDS011;47773;53.174;6.614;2023-05-16T14:56:29;7.72;;;1.70;;
61840;SDS011;47773;53.174;6.614;2023-05-16T14:58:57;6.95;;;1.92;;
61840;SDS011;47773;53.174;6.614;2023-05-16T15:01:23;5.75;;;2.08;;